sensor_id;sensor_type;location;lat;lon;timestamp;P1;durP1;ratioP1;P2;durP2;ratioP2
56307;SDS011;42217;50.422;7.210;2023-02-11T00:01:34;21.73;;;12.57;;
56307;SDS011;42217;50.422;7.210;2023-02-11T00:04:01;22.07;;;13.43;;
56307;SDS011;42217;50.422;7.210;2023-02-11T00:06:29;25.53;;;12.93;;
56307;SDS011;42217;50.422;7.210;2023-02-11T00:08:56;20.53;;;11.53;;
56307;SDS011;42217;50.422;7.210;2023-02-11T00:11:22;26.67;;;13.03;;
56307;SDS011;42217;50.422;7.210;2023-02-11T00:13:55;18.88;;;12.70;;
56307;SDS011;42217;50.422;7.210;2023-02-11T00:16:22;19.93;;;12.73;;
56307;SDS011;42217;50.422;7.210;2023-02-11T00:18:48;23.93;;;12.53;;
56307;SDS011;42217;50.422;7.210;2023-02-11T00:21:19;32.97;;;16.50;;
56307;SDS011;42217;50.422;7.210;2023-02-11T00:23:46;22.90;;;11.43;;
56307;SDS011;42217;50.422;7.210;2023-02-11T00:28:46;19.17;;;11.43;;
56307;SDS011;42217;50.422;7.210;2023-02-11T00:31:13;28.40;;;13.37;;
56307;SDS011;42217;50.422;7.210;2023-02-11T00:33:39;22.60;;;13.00;;
56307;SDS011;42217;50.422;7.210;2023-02-11T00:36:06;24.47;;;12.60;;
56307;SDS011;42217;50.422;7.210;2023-02-11T00:38:33;17.67;;;10.77;;
56307;SDS011;42217;50.422;7.210;2023-02-11T00:40:59;20.83;;;11.43;;
56307;SDS011;42217;50.422;7.210;2023-02-11T00:43:25;19.40;;;11.40;;
56307;SDS011;42217;50.422;7.210;2023-02-11T00:45:51;18.50;;;11.10;;
56307;SDS011;42217;50.422;7.210;2023-02-11T00:48:16;18.57;;;11.07;;
56307;SDS011;42217;50.422;7.210;2023-02-11T00:50:42;19.47;;;11.53;;
56307;SDS011;42217;50.422;7.210;2023-02-11T00:53:08;22.97;;;13.37;;
56307;SDS011;42217;50.422;7.210;2023-02-11T00:55:33;21.67;;;13.07;;
56307;SDS011;42217;50.422;7.210;2023-02-11T00:57:59;21.57;;;12.70;;
56307;SDS011;42217;50.422;7.210;2023-02-11T01:00:25;24.63;;;11.73;;
56307;SDS011;42217;50.422;7.210;2023-02-11T01:02:52;18.73;;;12.13;;
56307;SDS011;42217;50.422;7.210;2023-02-11T01:05:18;16.73;;;10.97;;
56307;SDS011;42217;50.422;7.210;2023-02-11T01:07:44;20.07;;;12.27;;
56307;SDS011;42217;50.422;7.210;2023-02-11T01:10:10;17.53;;;11.27;;
56307;SDS011;42217;50.422;7.210;2023-02-11T01:12:37;21.77;;;12.37;;
56307;SDS011;42217;50.422;7.210;2023-02-11T01:15:04;28.80;;;11.70;;
56307;SDS011;42217;50.422;7.210;2023-02-11T01:17:30;17.97;;;10.83;;
56307;SDS011;42217;50.422;7.210;2023-02-11T01:19:56;20.17;;;12.50;;
56307;SDS011;42217;50.422;7.210;2023-02-11T01:22:21;19.27;;;11.60;;
56307;SDS011;42217;50.422;7.210;2023-02-11T01:24:47;26.60;;;11.23;;
56307;SDS011;42217;50.422;7.210;2023-02-11T01:27:13;20.10;;;11.60;;
56307;SDS011;42217;50.422;7.210;2023-02-11T01:29:38;16.23;;;10.90;;
56307;SDS011;42217;50.422;7.210;2023-02-11T01:32:04;19.03;;;11.37;;
56307;SDS011;42217;50.422;7.210;2023-02-11T01:34:30;24.80;;;12.47;;
56307;SDS011;42217;50.422;7.210;2023-02-11T01:36:57;26.47;;;11.13;;
56307;SDS011;42217;50.422;7.210;2023-02-11T01:39:23;17.37;;;12.33;;
56307;SDS011;42217;50.422;7.210;2023-02-11T01:41:50;18.00;;;10.53;;
56307;SDS011;42217;50.422;7.210;2023-02-11T01:44:27;23.47;;;12.20;;
56307;SDS011;42217;50.422;7.210;2023-02-11T01:46:58;21.60;;;11.45;;
56307;SDS011;42217;50.422;7.210;2023-02-11T01:49:25;18.87;;;11.50;;
56307;SDS011;42217;50.422;7.210;2023-02-11T01:54:35;18.30;;;12.03;;
56307;SDS011;42217;50.422;7.210;2023-02-11T01:57:24;23.43;;;13.27;;
56307;SDS011;42217;50.422;7.210;2023-02-11T02:02:30;17.80;;;10.87;;
56307;SDS011;42217;50.422;7.210;2023-02-11T02:08:04;21.83;;;12.73;;
56307;SDS011;42217;50.422;7.210;2023-02-11T02:10:40;27.37;;;12.40;;
56307;SDS011;42217;50.422;7.210;2023-02-11T02:13:08;19.37;;;12.57;;
56307;SDS011;42217;50.422;7.210;2023-02-11T02:15:39;20.93;;;12.90;;
56307;SDS011;42217;50.422;7.210;2023-02-11T02:18:21;19.37;;;11.80;;
56307;SDS011;42217;50.422;7.210;2023-02-11T02:27:01;25.03;;;13.83;;
56307;SDS011;42217;50.422;7.210;2023-02-11T02:41:09;23.30;;;12.07;;
56307;SDS011;42217;50.422;7.210;2023-02-11T02:43:42;26.33;;;13.30;;
56307;SDS011;42217;50.422;7.210;2023-02-11T02:48:53;29.63;;;14.75;;
56307;SDS011;42217;50.422;7.210;2023-02-11T03:04:59;23.60;;;13.77;;
56307;SDS011;42217;50.422;7.210;2023-02-11T03:07:44;22.43;;;13.30;;
56307;SDS011;42217;50.422;7.210;2023-02-11T03:10:26;21.37;;;13.00;;
56307;SDS011;42217;50.422;7.210;2023-02-11T03:12:55;22.07;;;12.20;;
56307;SDS011;42217;50.422;7.210;2023-02-11T03:15:21;20.10;;;12.80;;
56307;SDS011;42217;50.422;7.210;2023-02-11T03:17:50;26.03;;;15.20;;
56307;SDS011;42217;50.422;7.210;2023-02-11T03:20:18;26.40;;;11.93;;
56307;SDS011;42217;50.422;7.210;2023-02-11T03:22:52;21.40;;;11.50;;
56307;SDS011;42217;50.422;7.210;2023-02-11T03:25:24;22.23;;;12.40;;
56307;SDS011;42217;50.422;7.210;2023-02-11T03:28:07;17.87;;;11.97;;
56307;SDS011;42217;50.422;7.210;2023-02-11T03:31:17;24.83;;;12.87;;
56307;SDS011;42217;50.422;7.210;2023-02-11T03:36:23;20.57;;;12.63;;
56307;SDS011;42217;50.422;7.210;2023-02-11T03:38:56;31.33;;;15.20;;
56307;SDS011;42217;50.422;7.210;2023-02-11T03:41:25;21.53;;;12.27;;
56307;SDS011;42217;50.422;7.210;2023-02-11T03:43:53;25.67;;;14.10;;
56307;SDS011;42217;50.422;7.210;2023-02-11T03:46:27;22.10;;;12.27;;
56307;SDS011;42217;50.422;7.210;2023-02-11T03:49:03;24.67;;;12.53;;
56307;SDS011;42217;50.422;7.210;2023-02-11T03:51:33;22.00;;;12.60;;
56307;SDS011;42217;50.422;7.210;2023-02-11T03:54:00;27.90;;;13.23;;
56307;SDS011;42217;50.422;7.210;2023-02-11T03:56:30;22.97;;;13.37;;
56307;SDS011;42217;50.422;7.210;2023-02-11T03:59:00;23.33;;;11.17;;
56307;SDS011;42217;50.422;7.210;2023-02-11T04:01:26;22.43;;;13.57;;
56307;SDS011;42217;50.422;7.210;2023-02-11T04:03:52;21.73;;;14.07;;
56307;SDS011;42217;50.422;7.210;2023-02-11T04:06:17;26.33;;;12.93;;
56307;SDS011;42217;50.422;7.210;2023-02-11T04:08:43;21.30;;;13.13;;
56307;SDS011;42217;50.422;7.210;2023-02-11T04:11:08;27.60;;;14.60;;
56307;SDS011;42217;50.422;7.210;2023-02-11T04:13:34;25.57;;;14.43;;
56307;SDS011;42217;50.422;7.210;2023-02-11T04:16:00;27.83;;;15.20;;
56307;SDS011;42217;50.422;7.210;2023-02-11T04:18:25;28.00;;;15.07;;
56307;SDS011;42217;50.422;7.210;2023-02-11T04:20:51;26.83;;;15.07;;
56307;SDS011;42217;50.422;7.210;2023-02-11T04:23:17;34.23;;;15.50;;
56307;SDS011;42217;50.422;7.210;2023-02-11T04:25:42;35.73;;;16.20;;
56307;SDS011;42217;50.422;7.210;2023-02-11T04:28:08;24.73;;;15.53;;
56307;SDS011;42217;50.422;7.210;2023-02-11T04:30:34;25.47;;;14.67;;
56307;SDS011;42217;50.422;7.210;2023-02-11T04:32:59;28.33;;;17.07;;
56307;SDS011;42217;50.422;7.210;2023-02-11T04:35:25;31.77;;;16.03;;
56307;SDS011;42217;50.422;7.210;2023-02-11T04:37:51;31.60;;;16.63;;
56307;SDS011;42217;50.422;7.210;2023-02-11T04:40:16;35.80;;;15.33;;
56307;SDS011;42217;50.422;7.210;2023-02-11T04:42:42;33.80;;;15.67;;
56307;SDS011;42217;50.422;7.210;2023-02-11T04:45:08;24.70;;;13.57;;
56307;SDS011;42217;50.422;7.210;2023-02-11T04:47:34;21.23;;;13.87;;
56307;SDS011;42217;50.422;7.210;2023-02-11T04:50:00;22.77;;;13.73;;
56307;SDS011;42217;50.422;7.210;2023-02-11T04:52:25;20.23;;;11.97;;
56307;SDS011;42217;50.422;7.210;2023-02-11T04:54:51;38.17;;;14.50;;
56307;SDS011;42217;50.422;7.210;2023-02-11T04:57:17;25.07;;;15.23;;
56307;SDS011;42217;50.422;7.210;2023-02-11T04:59:42;25.53;;;14.33;;
56307;SDS011;42217;50.422;7.210;2023-02-11T05:02:08;26.03;;;14.03;;
56307;SDS011;42217;50.422;7.210;2023-02-11T05:04:34;23.47;;;14.37;;
56307;SDS011;42217;50.422;7.210;2023-02-11T05:06:59;30.43;;;15.13;;
56307;SDS011;42217;50.422;7.210;2023-02-11T05:09:25;28.20;;;14.47;;
56307;SDS011;42217;50.422;7.210;2023-02-11T05:11:51;26.17;;;15.47;;
56307;SDS011;42217;50.422;7.210;2023-02-11T05:14:17;33.63;;;17.00;;
56307;SDS011;42217;50.422;7.210;2023-02-11T05:16:43;26.57;;;13.73;;
56307;SDS011;42217;50.422;7.210;2023-02-11T05:19:08;29.63;;;16.53;;
56307;SDS011;42217;50.422;7.210;2023-02-11T05:21:34;27.13;;;13.60;;
56307;SDS011;42217;50.422;7.210;2023-02-11T05:24:00;24.80;;;13.87;;
56307;SDS011;42217;50.422;7.210;2023-02-11T05:26:25;26.67;;;13.50;;
56307;SDS011;42217;50.422;7.210;2023-02-11T05:28:51;43.87;;;21.73;;
56307;SDS011;42217;50.422;7.210;2023-02-11T05:31:17;29.80;;;15.00;;
56307;SDS011;42217;50.422;7.210;2023-02-11T05:33:43;27.43;;;15.10;;
56307;SDS011;42217;50.422;7.210;2023-02-11T05:36:10;25.93;;;15.10;;
56307;SDS011;42217;50.422;7.210;2023-02-11T05:38:37;32.63;;;15.93;;
56307;SDS011;42217;50.422;7.210;2023-02-11T05:41:03;23.97;;;15.43;;
56307;SDS011;42217;50.422;7.210;2023-02-11T05:43:30;27.00;;;13.77;;
56307;SDS011;42217;50.422;7.210;2023-02-11T05:45:55;20.80;;;12.47;;
56307;SDS011;42217;50.422;7.210;2023-02-11T05:48:21;24.63;;;14.30;;
56307;SDS011;42217;50.422;7.210;2023-02-11T05:50:47;22.00;;;13.63;;
56307;SDS011;42217;50.422;7.210;2023-02-11T05:53:13;26.47;;;14.40;;
56307;SDS011;42217;50.422;7.210;2023-02-11T05:55:39;25.77;;;14.20;;
56307;SDS011;42217;50.422;7.210;2023-02-11T05:58:05;26.60;;;13.63;;
56307;SDS011;42217;50.422;7.210;2023-02-11T06:00:32;25.07;;;13.73;;
56307;SDS011;42217;50.422;7.210;2023-02-11T06:02:57;28.37;;;15.07;;
56307;SDS011;42217;50.422;7.210;2023-02-11T06:05:23;24.73;;;12.73;;
56307;SDS011;42217;50.422;7.210;2023-02-11T06:07:49;25.93;;;13.87;;
56307;SDS011;42217;50.422;7.210;2023-02-11T06:10:15;45.10;;;22.40;;
56307;SDS011;42217;50.422;7.210;2023-02-11T06:12:40;60.93;;;28.87;;
56307;SDS011;42217;50.422;7.210;2023-02-11T06:15:06;33.40;;;18.80;;
56307;SDS011;42217;50.422;7.210;2023-02-11T06:17:32;30.83;;;16.63;;
56307;SDS011;42217;50.422;7.210;2023-02-11T06:19:58;27.00;;;16.67;;
56307;SDS011;42217;50.422;7.210;2023-02-11T06:22:25;30.43;;;17.70;;
56307;SDS011;42217;50.422;7.210;2023-02-11T06:24:51;27.10;;;16.10;;
56307;SDS011;42217;50.422;7.210;2023-02-11T06:27:16;24.50;;;14.70;;
56307;SDS011;42217;50.422;7.210;2023-02-11T06:29:43;27.87;;;15.30;;
56307;SDS011;42217;50.422;7.210;2023-02-11T06:32:10;29.93;;;18.27;;
56307;SDS011;42217;50.422;7.210;2023-02-11T06:34:36;29.27;;;16.10;;
56307;SDS011;42217;50.422;7.210;2023-02-11T06:37:02;29.80;;;15.50;;
56307;SDS011;42217;50.422;7.210;2023-02-11T06:39:29;28.70;;;15.07;;
56307;SDS011;42217;50.422;7.210;2023-02-11T06:41:54;20.37;;;12.63;;
56307;SDS011;42217;50.422;7.210;2023-02-11T06:44:20;23.93;;;14.50;;
56307;SDS011;42217;50.422;7.210;2023-02-11T06:46:46;27.83;;;14.37;;
56307;SDS011;42217;50.422;7.210;2023-02-11T06:49:12;21.60;;;12.00;;
56307;SDS011;42217;50.422;7.210;2023-02-11T06:51:38;31.87;;;16.00;;
56307;SDS011;42217;50.422;7.210;2023-02-11T06:54:04;26.00;;;14.03;;
56307;SDS011;42217;50.422;7.210;2023-02-11T06:56:30;32.17;;;13.43;;
56307;SDS011;42217;50.422;7.210;2023-02-11T06:58:56;24.93;;;12.90;;
56307;SDS011;42217;50.422;7.210;2023-02-11T07:01:23;31.87;;;12.33;;
56307;SDS011;42217;50.422;7.210;2023-02-11T07:03:49;30.50;;;12.20;;
56307;SDS011;42217;50.422;7.210;2023-02-11T07:06:17;23.13;;;12.23;;
56307;SDS011;42217;50.422;7.210;2023-02-11T07:08:45;19.80;;;10.63;;
56307;SDS011;42217;50.422;7.210;2023-02-11T07:11:13;24.13;;;13.70;;
56307;SDS011;42217;50.422;7.210;2023-02-11T07:13:41;24.10;;;14.23;;
56307;SDS011;42217;50.422;7.210;2023-02-11T07:16:08;24.47;;;12.63;;
56307;SDS011;42217;50.422;7.210;2023-02-11T07:18:36;23.53;;;12.40;;
56307;SDS011;42217;50.422;7.210;2023-02-11T07:21:03;21.47;;;10.53;;
56307;SDS011;42217;50.422;7.210;2023-02-11T07:23:30;26.17;;;11.23;;
56307;SDS011;42217;50.422;7.210;2023-02-11T07:25:56;21.67;;;10.97;;
56307;SDS011;42217;50.422;7.210;2023-02-11T07:28:21;23.83;;;12.17;;
56307;SDS011;42217;50.422;7.210;2023-02-11T07:30:47;22.10;;;10.80;;
56307;SDS011;42217;50.422;7.210;2023-02-11T07:33:12;25.20;;;13.07;;
56307;SDS011;42217;50.422;7.210;2023-02-11T07:35:38;21.40;;;12.10;;
56307;SDS011;42217;50.422;7.210;2023-02-11T07:38:04;24.33;;;13.80;;
56307;SDS011;42217;50.422;7.210;2023-02-11T07:40:29;21.50;;;12.87;;
56307;SDS011;42217;50.422;7.210;2023-02-11T07:42:55;18.03;;;11.37;;
56307;SDS011;42217;50.422;7.210;2023-02-11T07:45:21;23.83;;;10.53;;
56307;SDS011;42217;50.422;7.210;2023-02-11T07:47:48;19.07;;;10.90;;
56307;SDS011;42217;50.422;7.210;2023-02-11T07:50:15;25.33;;;10.87;;
56307;SDS011;42217;50.422;7.210;2023-02-11T07:52:41;20.63;;;12.13;;
56307;SDS011;42217;50.422;7.210;2023-02-11T07:55:07;21.20;;;11.83;;
56307;SDS011;42217;50.422;7.210;2023-02-11T07:57:34;25.10;;;11.60;;
56307;SDS011;42217;50.422;7.210;2023-02-11T08:00:00;16.90;;;9.93;;
56307;SDS011;42217;50.422;7.210;2023-02-11T08:02:26;18.63;;;10.33;;
56307;SDS011;42217;50.422;7.210;2023-02-11T08:04:51;17.03;;;9.20;;
56307;SDS011;42217;50.422;7.210;2023-02-11T08:07:17;33.00;;;14.77;;
56307;SDS011;42217;50.422;7.210;2023-02-11T08:09:43;80.27;;;33.37;;
56307;SDS011;42217;50.422;7.210;2023-02-11T08:12:09;26.13;;;14.47;;
56307;SDS011;42217;50.422;7.210;2023-02-11T08:14:35;23.10;;;13.03;;
56307;SDS011;42217;50.422;7.210;2023-02-11T08:17:01;14.83;;;8.93;;
56307;SDS011;42217;50.422;7.210;2023-02-11T08:19:27;18.70;;;11.37;;
56307;SDS011;42217;50.422;7.210;2023-02-11T08:21:56;18.07;;;10.53;;
56307;SDS011;42217;50.422;7.210;2023-02-11T08:24:24;20.87;;;12.03;;
56307;SDS011;42217;50.422;7.210;2023-02-11T08:26:50;18.23;;;10.40;;
56307;SDS011;42217;50.422;7.210;2023-02-11T08:29:15;16.17;;;9.50;;
56307;SDS011;42217;50.422;7.210;2023-02-11T08:31:43;20.03;;;11.80;;
56307;SDS011;42217;50.422;7.210;2023-02-11T08:34:11;13.20;;;8.93;;
56307;SDS011;42217;50.422;7.210;2023-02-11T08:36:40;44.37;;;10.63;;
56307;SDS011;42217;50.422;7.210;2023-02-11T08:39:09;15.57;;;9.57;;
56307;SDS011;42217;50.422;7.210;2023-02-11T08:41:38;19.45;;;8.85;;
56307;SDS011;42217;50.422;7.210;2023-02-11T08:44:04;14.43;;;8.67;;
56307;SDS011;42217;50.422;7.210;2023-02-11T08:46:30;17.60;;;8.90;;
56307;SDS011;42217;50.422;7.210;2023-02-11T08:48:55;12.53;;;7.47;;
56307;SDS011;42217;50.422;7.210;2023-02-11T08:51:25;15.03;;;7.93;;
56307;SDS011;42217;50.422;7.210;2023-02-11T08:53:53;12.63;;;8.80;;
56307;SDS011;42217;50.422;7.210;2023-02-11T08:56:20;18.97;;;12.30;;
56307;SDS011;42217;50.422;7.210;2023-02-11T08:58:47;19.13;;;10.80;;
56307;SDS011;42217;50.422;7.210;2023-02-11T09:01:17;19.10;;;11.53;;
56307;SDS011;42217;50.422;7.210;2023-02-11T09:03:46;16.63;;;10.40;;
56307;SDS011;42217;50.422;7.210;2023-02-11T09:06:12;12.37;;;7.67;;
56307;SDS011;42217;50.422;7.210;2023-02-11T09:08:43;15.13;;;9.50;;
56307;SDS011;42217;50.422;7.210;2023-02-11T09:11:11;18.77;;;9.80;;
56307;SDS011;42217;50.422;7.210;2023-02-11T09:13:39;13.00;;;7.53;;
56307;SDS011;42217;50.422;7.210;2023-02-11T09:16:06;42.87;;;17.27;;
56307;SDS011;42217;50.422;7.210;2023-02-11T09:18:35;116.67;;;41.57;;
56307;SDS011;42217;50.422;7.210;2023-02-11T09:21:05;100.37;;;37.00;;
56307;SDS011;42217;50.422;7.210;2023-02-11T09:23:33;101.37;;;39.03;;
56307;SDS011;42217;50.422;7.210;2023-02-11T09:26:06;63.97;;;23.50;;
56307;SDS011;42217;50.422;7.210;2023-02-11T09:28:33;14.20;;;8.67;;
56307;SDS011;42217;50.422;7.210;2023-02-11T09:31:03;12.23;;;7.47;;
56307;SDS011;42217;50.422;7.210;2023-02-11T09:33:32;15.33;;;8.80;;
56307;SDS011;42217;50.422;7.210;2023-02-11T09:36:01;11.53;;;6.10;;
56307;SDS011;42217;50.422;7.210;2023-02-11T09:38:29;10.03;;;5.63;;
56307;SDS011;42217;50.422;7.210;2023-02-11T09:40:55;11.60;;;7.43;;
56307;SDS011;42217;50.422;7.210;2023-02-11T09:43:22;13.20;;;8.50;;
56307;SDS011;42217;50.422;7.210;2023-02-11T09:48:20;9.47;;;6.20;;
56307;SDS011;42217;50.422;7.210;2023-02-11T09:53:22;14.43;;;7.13;;
56307;SDS011;42217;50.422;7.210;2023-02-11T09:55:58;11.07;;;6.60;;
56307;SDS011;42217;50.422;7.210;2023-02-11T09:58:35;14.47;;;7.63;;
56307;SDS011;42217;50.422;7.210;2023-02-11T10:07:06;8.87;;;5.23;;
56307;SDS011;42217;50.422;7.210;2023-02-11T10:18:17;9.50;;;6.27;;
56307;SDS011;42217;50.422;7.210;2023-02-11T10:23:59;7.93;;;6.50;;
56307;SDS011;42217;50.422;7.210;2023-02-11T10:26:29;10.33;;;6.07;;
56307;SDS011;42217;50.422;7.210;2023-02-11T10:28:58;9.17;;;5.87;;
56307;SDS011;42217;50.422;7.210;2023-02-11T10:31:27;7.53;;;5.47;;
56307;SDS011;42217;50.422;7.210;2023-02-11T10:34:02;8.70;;;5.13;;
56307;SDS011;42217;50.422;7.210;2023-02-11T10:36:37;9.13;;;5.87;;
56307;SDS011;42217;50.422;7.210;2023-02-11T10:39:19;8.77;;;6.07;;
56307;SDS011;42217;50.422;7.210;2023-02-11T10:41:53;9.47;;;6.63;;
56307;SDS011;42217;50.422;7.210;2023-02-11T10:44:27;9.13;;;4.93;;
56307;SDS011;42217;50.422;7.210;2023-02-11T10:46:58;8.03;;;4.57;;
56307;SDS011;42217;50.422;7.210;2023-02-11T10:49:33;7.70;;;5.20;;
56307;SDS011;42217;50.422;7.210;2023-02-11T10:52:20;10.10;;;5.70;;
56307;SDS011;42217;50.422;7.210;2023-02-11T10:55:00;8.07;;;4.77;;
56307;SDS011;42217;50.422;7.210;2023-02-11T10:57:40;6.93;;;5.60;;
56307;SDS011;42217;50.422;7.210;2023-02-11T11:01:09;11.20;;;5.20;;
56307;SDS011;42217;50.422;7.210;2023-02-11T11:03:06;8.57;;;5.17;;
56307;SDS011;42217;50.422;7.210;2023-02-11T11:05:47;8.88;;;5.95;;
56307;SDS011;42217;50.422;7.210;2023-02-11T11:08:23;17.67;;;9.10;;
56307;SDS011;42217;50.422;7.210;2023-02-11T11:11:13;12.30;;;6.07;;
56307;SDS011;42217;50.422;7.210;2023-02-11T11:13:41;7.93;;;5.23;;
56307;SDS011;42217;50.422;7.210;2023-02-11T11:19:13;9.60;;;6.17;;
56307;SDS011;42217;50.422;7.210;2023-02-11T11:21:44;8.57;;;5.30;;
56307;SDS011;42217;50.422;7.210;2023-02-11T11:26:54;8.87;;;5.23;;
56307;SDS011;42217;50.422;7.210;2023-02-11T11:29:22;7.73;;;5.13;;
56307;SDS011;42217;50.422;7.210;2023-02-11T11:31:59;9.67;;;6.97;;
56307;SDS011;42217;50.422;7.210;2023-02-11T11:34:33;8.90;;;6.03;;
56307;SDS011;42217;50.422;7.210;2023-02-11T11:40:02;7.80;;;5.20;;
56307;SDS011;42217;50.422;7.210;2023-02-11T11:42:33;10.60;;;5.90;;
56307;SDS011;42217;50.422;7.210;2023-02-11T11:45:02;8.20;;;5.70;;
56307;SDS011;42217;50.422;7.210;2023-02-11T11:47:57;7.20;;;4.80;;
56307;SDS011;42217;50.422;7.210;2023-02-11T11:50:38;10.47;;;5.90;;
56307;SDS011;42217;50.422;7.210;2023-02-11T11:55:43;7.67;;;5.20;;
56307;SDS011;42217;50.422;7.210;2023-02-11T11:58:19;10.50;;;6.07;;
56307;SDS011;42217;50.422;7.210;2023-02-11T12:03:39;9.63;;;6.10;;
56307;SDS011;42217;50.422;7.210;2023-02-11T12:06:30;7.83;;;5.57;;
56307;SDS011;42217;50.422;7.210;2023-02-11T12:10:08;7.37;;;5.47;;
56307;SDS011;42217;50.422;7.210;2023-02-11T12:54:53;6.27;;;4.40;;
56307;SDS011;42217;50.422;7.210;2023-02-11T12:57:28;7.80;;;4.93;;
56307;SDS011;42217;50.422;7.210;2023-02-11T13:05:19;9.07;;;5.40;;
56307;SDS011;42217;50.422;7.210;2023-02-11T13:07:49;7.93;;;5.17;;
56307;SDS011;42217;50.422;7.210;2023-02-11T13:10:23;13.00;;;5.30;;
56307;SDS011;42217;50.422;7.210;2023-02-11T13:12:57;7.50;;;4.73;;
56307;SDS011;42217;50.422;7.210;2023-02-11T13:16:30;5.70;;;4.10;;
56307;SDS011;42217;50.422;7.210;2023-02-11T13:23:48;5.83;;;4.57;;
56307;SDS011;42217;50.422;7.210;2023-02-11T13:26:32;6.37;;;4.93;;
56307;SDS011;42217;50.422;7.210;2023-02-11T13:29:13;6.23;;;5.10;;
56307;SDS011;42217;50.422;7.210;2023-02-11T13:32:09;11.30;;;6.00;;
56307;SDS011;42217;50.422;7.210;2023-02-11T13:37:50;7.07;;;4.40;;
56307;SDS011;42217;50.422;7.210;2023-02-11T13:45:16;5.60;;;4.73;;
56307;SDS011;42217;50.422;7.210;2023-02-11T13:47:49;8.77;;;5.23;;
56307;SDS011;42217;50.422;7.210;2023-02-11T13:50:23;5.90;;;4.17;;
56307;SDS011;42217;50.422;7.210;2023-02-11T13:52:56;10.33;;;4.70;;
56307;SDS011;42217;50.422;7.210;2023-02-11T13:55:23;7.63;;;5.60;;
56307;SDS011;42217;50.422;7.210;2023-02-11T14:09:09;8.77;;;5.20;;
56307;SDS011;42217;50.422;7.210;2023-02-11T14:17:33;6.13;;;4.77;;
56307;SDS011;42217;50.422;7.210;2023-02-11T14:20:00;6.60;;;4.97;;
56307;SDS011;42217;50.422;7.210;2023-02-11T14:22:46;8.70;;;5.77;;
56307;SDS011;42217;50.422;7.210;2023-02-11T14:25:21;9.10;;;6.83;;
56307;SDS011;42217;50.422;7.210;2023-02-11T14:28:31;13.37;;;9.70;;
56307;SDS011;42217;50.422;7.210;2023-02-11T14:33:36;16.83;;;10.67;;
56307;SDS011;42217;50.422;7.210;2023-02-11T14:42:04;18.53;;;10.50;;
56307;SDS011;42217;50.422;7.210;2023-02-11T14:44:33;17.00;;;10.93;;
56307;SDS011;42217;50.422;7.210;2023-02-11T14:46:59;20.93;;;12.20;;
56307;SDS011;42217;50.422;7.210;2023-02-11T14:49:35;21.87;;;11.93;;
56307;SDS011;42217;50.422;7.210;2023-02-11T14:52:46;19.20;;;11.33;;
56307;SDS011;42217;50.422;7.210;2023-02-11T14:55:04;20.57;;;12.93;;
56307;SDS011;42217;50.422;7.210;2023-02-11T14:57:40;21.80;;;12.27;;
56307;SDS011;42217;50.422;7.210;2023-02-11T15:00:19;20.80;;;11.47;;
56307;SDS011;42217;50.422;7.210;2023-02-11T15:02:46;20.83;;;11.83;;
56307;SDS011;42217;50.422;7.210;2023-02-11T15:05:17;20.77;;;13.93;;
56307;SDS011;42217;50.422;7.210;2023-02-11T15:07:50;23.80;;;13.90;;
56307;SDS011;42217;50.422;7.210;2023-02-11T15:10:29;21.33;;;12.95;;
56307;SDS011;42217;50.422;7.210;2023-02-11T15:12:58;24.57;;;14.03;;
56307;SDS011;42217;50.422;7.210;2023-02-11T15:15:26;19.63;;;13.30;;
56307;SDS011;42217;50.422;7.210;2023-02-11T15:17:53;23.43;;;12.90;;
56307;SDS011;42217;50.422;7.210;2023-02-11T15:20:26;20.87;;;11.50;;
56307;SDS011;42217;50.422;7.210;2023-02-11T15:23:00;19.23;;;13.63;;
56307;SDS011;42217;50.422;7.210;2023-02-11T15:25:29;18.60;;;12.30;;
56307;SDS011;42217;50.422;7.210;2023-02-11T15:27:56;23.90;;;13.70;;
56307;SDS011;42217;50.422;7.210;2023-02-11T15:32:55;23.60;;;14.57;;
56307;SDS011;42217;50.422;7.210;2023-02-11T15:38:00;20.77;;;11.60;;
56307;SDS011;42217;50.422;7.210;2023-02-11T15:40:27;19.27;;;12.60;;
56307;SDS011;42217;50.422;7.210;2023-02-11T15:43:02;20.95;;;12.57;;
56307;SDS011;42217;50.422;7.210;2023-02-11T15:45:33;20.90;;;12.10;;
56307;SDS011;42217;50.422;7.210;2023-02-11T15:48:40;20.37;;;12.97;;
56307;SDS011;42217;50.422;7.210;2023-02-11T15:51:02;17.03;;;11.43;;
56307;SDS011;42217;50.422;7.210;2023-02-11T15:53:53;22.67;;;12.57;;
56307;SDS011;42217;50.422;7.210;2023-02-11T15:58:58;23.27;;;13.17;;
56307;SDS011;42217;50.422;7.210;2023-02-11T16:01:33;18.13;;;11.20;;
56307;SDS011;42217;50.422;7.210;2023-02-11T16:04:01;22.37;;;12.90;;
56307;SDS011;42217;50.422;7.210;2023-02-11T16:06:35;24.20;;;13.73;;
56307;SDS011;42217;50.422;7.210;2023-02-11T16:14:27;21.27;;;12.90;;
56307;SDS011;42217;50.422;7.210;2023-02-11T16:19:49;20.17;;;13.23;;
56307;SDS011;42217;50.422;7.210;2023-02-11T16:22:18;25.03;;;12.33;;
56307;SDS011;42217;50.422;7.210;2023-02-11T16:24:51;20.23;;;12.93;;
56307;SDS011;42217;50.422;7.210;2023-02-11T16:30:28;20.40;;;12.27;;
56307;SDS011;42217;50.422;7.210;2023-02-11T16:32:57;21.37;;;12.23;;
56307;SDS011;42217;50.422;7.210;2023-02-11T16:35:23;25.03;;;14.07;;
56307;SDS011;42217;50.422;7.210;2023-02-11T16:37:49;29.20;;;16.33;;
56307;SDS011;42217;50.422;7.210;2023-02-11T16:40:14;29.17;;;17.33;;
56307;SDS011;42217;50.422;7.210;2023-02-11T16:42:40;28.57;;;16.73;;
56307;SDS011;42217;50.422;7.210;2023-02-11T16:45:06;32.23;;;19.30;;
56307;SDS011;42217;50.422;7.210;2023-02-11T16:47:33;24.80;;;14.47;;
56307;SDS011;42217;50.422;7.210;2023-02-11T16:49:59;25.33;;;15.97;;
56307;SDS011;42217;50.422;7.210;2023-02-11T16:52:26;25.60;;;15.20;;
56307;SDS011;42217;50.422;7.210;2023-02-11T16:54:54;27.90;;;16.97;;
56307;SDS011;42217;50.422;7.210;2023-02-11T16:57:21;26.57;;;16.07;;
56307;SDS011;42217;50.422;7.210;2023-02-11T16:59:48;24.80;;;14.20;;
56307;SDS011;42217;50.422;7.210;2023-02-11T17:02:15;36.53;;;21.07;;
56307;SDS011;42217;50.422;7.210;2023-02-11T17:04:44;31.23;;;18.87;;
56307;SDS011;42217;50.422;7.210;2023-02-11T17:07:10;33.10;;;16.93;;
56307;SDS011;42217;50.422;7.210;2023-02-11T17:09:36;30.00;;;17.40;;
56307;SDS011;42217;50.422;7.210;2023-02-11T17:12:02;29.07;;;16.33;;
56307;SDS011;42217;50.422;7.210;2023-02-11T17:14:28;25.70;;;15.83;;
56307;SDS011;42217;50.422;7.210;2023-02-11T17:16:55;27.60;;;16.40;;
56307;SDS011;42217;50.422;7.210;2023-02-11T17:19:21;27.20;;;15.27;;
56307;SDS011;42217;50.422;7.210;2023-02-11T17:21:47;29.97;;;16.00;;
56307;SDS011;42217;50.422;7.210;2023-02-11T17:24:15;41.33;;;23.30;;
56307;SDS011;42217;50.422;7.210;2023-02-11T17:26:41;35.23;;;20.97;;
56307;SDS011;42217;50.422;7.210;2023-02-11T17:29:11;29.17;;;17.63;;
56307;SDS011;42217;50.422;7.210;2023-02-11T17:31:39;28.40;;;17.20;;
56307;SDS011;42217;50.422;7.210;2023-02-11T17:34:05;30.60;;;19.07;;
56307;SDS011;42217;50.422;7.210;2023-02-11T17:36:31;32.50;;;20.50;;
56307;SDS011;42217;50.422;7.210;2023-02-11T17:38:58;33.43;;;20.40;;
56307;SDS011;42217;50.422;7.210;2023-02-11T17:41:24;35.17;;;19.37;;
56307;SDS011;42217;50.422;7.210;2023-02-11T17:43:50;38.33;;;21.10;;
56307;SDS011;42217;50.422;7.210;2023-02-11T17:46:16;34.43;;;19.87;;
56307;SDS011;42217;50.422;7.210;2023-02-11T17:48:42;35.43;;;21.37;;
56307;SDS011;42217;50.422;7.210;2023-02-11T17:51:24;31.67;;;19.20;;